Time;durP1;ratioP1;P1;durP2;ratioP2;P2;SDS_P1;SDS_P2;PMS_P1;PMS_P2;Temp;Humidity;BMP_temperature;BMP_pressure;BME280_temperature;BME280_humidity;BME280_pressure;Samples;Min_cycle;Max_cycle;Signal;HPM_P1;HPM_P2
2021/04/18 00:01:10;;;;;;;10.82;7.55;;;;;;;7.58;69.83;94763.38;5071528;28;20299;-67
2021/04/18 00:03:37;;;;;;;10.20;7.43;;;;;;;7.49;70.41;94765.59;5088813;28;20201;-65
2021/04/18 00:06:04;;;;;;;10.55;8.55;;;;;;;7.61;70.28;94768.91;5087016;28;20588;-65
2021/04/18 00:08:30;;;;;;;10.38;8.45;;;;;;;7.70;69.89;94771.91;5070800;28;20271;-65
2021/04/18 00:10:57;;;;;;;11.45;9.38;;;;;;;7.51;70.89;94762.75;5070648;28;20228;-64
2021/04/18 00:13:23;;;;;;;13.10;9.82;;;;;;;7.33;71.59;94770.81;5073473;28;20234;-65
2021/04/18 00:15:50;;;;;;;14.35;9.93;;;;;;;7.32;71.48;94779.69;5089441;28;20290;-64
2021/04/18 00:18:17;;;;;;;13.68;10.82;;;;;;;7.41;71.37;94767.84;5090570;28;20196;-67
2021/04/18 00:20:44;;;;;;;14.60;11.82;;;;;;;7.52;71.19;94756.53;5085624;28;20195;-65
2021/04/18 00:23:10;;;;;;;17.63;13.10;;;;;;;7.56;71.14;94752.38;5069854;28;20630;-64
2021/04/18 00:25:36;;;;;;;18.35;14.45;;;;;;;7.61;71.15;94747.25;5074303;28;20380;-65
2021/04/18 00:28:03;;;;;;;19.50;15.95;;;;;;;7.64;71.13;94741.56;5074720;28;20200;-68
2021/04/18 00:30:30;;;;;;;21.92;17.13;;;;;;;7.65;70.70;94743.13;5073573;28;20190;-67
2021/04/18 00:33:00;;;;;;;22.13;18.00;;;;;;;7.68;70.95;94753.09;5069752;28;20215;-66
2021/04/18 00:35:28;;;;;;;22.90;18.13;;;;;;;7.76;71.01;94755.28;5070518;28;20340;-67
2021/04/18 00:37:55;;;;;;;25.13;19.05;;;;;;;7.95;70.07;94743.53;5073574;28;20195;-66
2021/04/18 00:40:23;;;;;;;23.25;19.20;;;;;;;7.65;71.02;94750.94;5076147;28;20571;-64
2021/04/18 00:42:50;;;;;;;22.63;19.13;;;;;;;7.73;70.74;94760.97;5088274;28;20290;-65
2021/04/18 00:45:18;;;;;;;25.35;20.38;;;;;;;7.80;70.24;94753.75;5089025;28;20324;-66
2021/04/18 00:47:50;;;;;;;24.65;19.38;;;;;;;7.98;69.50;94737.81;5072644;28;20271;-67
2021/04/18 00:50:30;;;;;;;25.60;19.25;;;;;;;7.70;69.18;94714.53;5070096;28;20196;-66
2021/04/18 00:52:58;;;;;;;25.95;19.20;;;;;;;7.89;69.65;94729.63;5069680;28;20317;-65
2021/04/18 00:55:27;;;;;;;24.63;19.88;;;;;;;7.74;70.03;94728.63;5084342;28;20661;-64
2021/04/18 00:57:55;;;;;;;26.48;19.95;;;;;;;7.78;70.40;94732.34;5089599;28;20706;-67
2021/04/18 01:00:23;;;;;;;24.20;19.02;;;;;;;7.61;69.90;94723.78;5088941;28;20222;-64
2021/04/18 01:02:50;;;;;;;25.17;18.70;;;;;;;7.66;70.30;94749.94;5088443;28;20195;-67
2021/04/18 01:05:17;;;;;;;22.27;17.85;;;;;;;7.53;70.23;94745.06;5088679;28;20242;-63
2021/04/18 01:07:44;;;;;;;21.13;17.67;;;;;;;7.66;70.30;94750.72;5088990;28;20734;-65
2021/04/18 01:10:13;;;;;;;24.25;17.42;;;;;;;7.65;70.26;94745.72;5090936;28;20246;-69
2021/04/18 01:12:40;;;;;;;20.83;16.40;;;;;;;7.53;69.96;94750.28;5086072;28;20253;-64
2021/04/18 01:15:09;;;;;;;19.92;16.85;;;;;;;7.54;70.15;94751.84;5070064;28;20192;-68
2021/04/18 01:17:35;;;;;;;22.45;16.60;;;;;;;7.63;69.76;94745.19;5068226;28;20670;-68
2021/04/18 01:20:12;;;;;;;21.70;16.63;;;;;;;7.43;70.85;94739.69;5070114;28;20196;-67
2021/04/18 01:22:39;;;;;;;21.98;15.85;;;;;;;7.16;70.77;94716.91;5068711;28;20650;-67
2021/04/18 01:25:42;;;;;;;21.90;16.95;;;;;;;7.53;70.21;94730.22;5070880;28;20203;-66
2021/04/18 01:28:17;;;;;;;22.60;17.52;;;;;;;7.49;70.10;94736.13;5089250;28;20218;-64
2021/04/18 01:30:44;;;;;;;23.40;16.58;;;;;;;7.40;71.01;94729.75;5090126;28;20574;-66
2021/04/18 01:33:10;;;;;;;21.77;16.92;;;;;;;7.43;70.64;94750.09;5089735;28;20727;-63
2021/04/18 01:35:37;;;;;;;25.30;18.35;;;;;;;7.65;70.25;94743.91;5078569;28;20215;-68
2021/04/18 01:38:09;;;;;;;24.88;18.45;;;;;;;7.65;69.81;94738.72;5069666;28;20188;-67
2021/04/18 01:40:36;;;;;;;22.58;16.88;;;;;;;7.70;69.88;94719.75;5069809;28;20729;-65
2021/04/18 01:43:03;;;;;;;24.02;17.08;;;;;;;7.58;70.10;94721.66;5069059;28;20202;-65
2021/04/18 01:45:30;;;;;;;25.02;17.75;;;;;;;7.48;70.11;94714.47;5071600;28;20560;-64
2021/04/18 01:47:59;;;;;;;22.10;16.77;;;;;;;7.55;69.62;94722.16;5071596;28;20236;-64
2021/04/18 01:50:27;;;;;;;27.73;19.15;;;;;;;7.64;69.96;94728.53;5073459;28;20235;-67
2021/04/18 01:52:53;;;;;;;25.65;18.50;;;;;;;7.64;69.47;94718.88;5071639;28;20261;-68
2021/04/18 01:55:20;;;;;;;30.00;20.52;;;;;;;7.69;69.41;94718.16;5071870;28;20200;-66
2021/04/18 01:57:49;;;;;;;24.92;18.65;;;;;;;7.65;69.36;94724.88;5072735;28;20194;-66
2021/04/18 02:00:27;;;;;;;28.10;20.40;;;;;;;7.79;69.33;94734.72;5071923;28;21029;-65
2021/04/18 02:02:58;;;;;;;26.30;19.92;;;;;;;7.70;68.79;94725.72;5076990;28;20298;-65
2021/04/18 02:05:34;;;;;;;26.42;20.08;;;;;;;7.89;68.98;94739.28;5092347;28;20209;-64
2021/04/18 02:08:02;;;;;;;26.27;18.73;;;;;;;7.72;69.07;94738.56;5092756;28;20737;-64
2021/04/18 02:10:30;;;;;;;25.92;17.48;;;;;;;7.27;69.55;94724.84;5093057;28;20223;-63
2021/04/18 02:12:56;;;;;;;29.60;21.45;;;;;;;7.52;69.38;94743.50;5092712;28;20317;-64
2021/04/18 02:15:35;;;;;;;31.17;21.13;;;;;;;7.61;69.04;94737.59;5091565;28;20266;-63
2021/04/18 02:18:03;;;;;;;28.23;18.27;;;;;;;7.36;69.32;94739.06;5091644;28;20203;-68
2021/04/18 02:20:31;;;;;;;31.13;20.50;;;;;;;7.34;70.08;94730.69;5092068;28;20222;-67
2021/04/18 02:22:59;;;;;;;26.77;19.73;;;;;;;7.49;69.43;94723.09;5091750;28;20488;-65
2021/04/18 02:25:26;;;;;;;27.40;20.35;;;;;;;7.57;69.31;94726.06;5091589;28;20207;-65
2021/04/18 02:27:52;;;;;;;27.23;21.33;;;;;;;7.44;69.46;94715.22;5092706;28;20271;-67
2021/04/18 02:30:24;;;;;;;31.02;20.75;;;;;;;7.41;69.36;94720.91;5091635;28;20199;-66
2021/04/18 02:32:50;;;;;;;26.83;20.00;;;;;;;7.50;69.08;94729.91;5092651;28;20288;-65
2021/04/18 02:35:17;;;;;;;27.33;20.17;;;;;;;7.57;68.38;94714.88;5091757;28;20586;-68
2021/04/18 02:37:45;;;;;;;26.90;19.25;;;;;;;7.66;68.67;94719.44;5092439;28;20282;-65
2021/04/18 02:40:15;;;;;;;27.00;19.95;;;;;;;7.69;68.78;94723.38;5091489;28;20286;-67
2021/04/18 02:42:43;;;;;;;27.35;19.27;;;;;;;7.73;68.44;94714.03;5091183;28;20199;-66
2021/04/18 02:45:13;;;;;;;27.27;19.40;;;;;;;7.72;68.24;94720.28;5092291;28;20203;-67
2021/04/18 02:47:45;;;;;;;27.05;19.13;;;;;;;7.82;67.89;94728.22;5092477;28;20206;-64
2021/04/18 02:50:13;;;;;;;25.20;18.85;;;;;;;7.66;67.87;94726.47;5091210;28;20221;-64
2021/04/18 02:52:40;;;;;;;32.58;20.20;;;;;;;7.73;67.88;94724.47;5092067;28;20222;-66
2021/04/18 02:55:08;;;;;;;30.13;21.08;;;;;;;7.56;68.00;94729.72;5092448;28;20255;-64
2021/04/18 02:57:49;;;;;;;28.23;20.75;;;;;;;7.72;67.92;94717.69;5090988;28;20574;-67
2021/04/18 03:00:16;;;;;;;26.17;19.67;;;;;;;7.62;67.92;94725.38;5090987;28;20199;-66
2021/04/18 03:02:43;;;;;;;27.23;19.80;;;;;;;7.72;67.25;94738.56;5090779;28;20210;-69
2021/04/18 03:05:10;;;;;;;28.80;20.05;;;;;;;7.71;67.24;94736.97;5090985;28;20452;-65
2021/04/18 03:07:42;;;;;;;30.38;20.15;;;;;;;7.74;67.09;94736.47;5090959;28;20221;-65
2021/04/18 03:10:11;;;;;;;30.13;20.58;;;;;;;7.88;66.96;94737.72;5090974;28;20241;-67
2021/04/18 03:12:39;;;;;;;41.63;21.75;;;;;;;7.86;67.16;94735.34;5075426;28;20231;-65
2021/04/18 03:15:07;;;;;;;27.42;19.75;;;;;;;7.85;67.08;94732.94;5088535;28;20708;-68
2021/04/18 03:17:39;;;;;;;27.40;19.25;;;;;;;7.43;67.83;94737.88;5090677;28;20203;-64
2021/04/18 03:20:11;;;;;;;25.88;18.70;;;;;;;7.71;67.02;94747.38;5090905;28;20649;-66
2021/04/18 03:22:41;;;;;;;25.10;19.40;;;;;;;7.91;66.41;94743.22;5088382;28;20294;-64
2021/04/18 03:25:10;;;;;;;28.50;20.38;;;;;;;7.91;66.34;94726.78;5072080;28;20560;-66
2021/04/18 03:27:38;;;;;;;29.00;20.30;;;;;;;8.03;66.38;94740.47;5069981;28;20195;-65
2021/04/18 03:30:09;;;;;;;29.45;19.33;;;;;;;7.98;66.31;94758.69;5070378;28;20203;-66
2021/04/18 03:32:48;;;;;;;29.25;20.23;;;;;;;8.04;65.27;94758.53;5069973;28;20664;-67
2021/04/18 03:35:15;;;;;;;26.10;18.38;;;;;;;7.83;65.76;94772.31;5073238;28;20635;-66
2021/04/18 03:37:45;;;;;;;24.95;19.25;;;;;;;7.75;66.78;94766.75;5072039;28;20719;-68
2021/04/18 03:40:12;;;;;;;26.40;18.02;;;;;;;7.77;66.30;94773.28;5071629;28;20229;-65
2021/04/18 03:42:39;;;;;;;23.00;18.27;;;;;;;7.76;66.62;94770.91;5072410;28;20200;-67
2021/04/18 03:45:08;;;;;;;23.73;17.77;;;;;;;7.91;66.38;94763.31;5070967;28;20290;-65
2021/04/18 03:47:35;;;;;;;27.95;18.25;;;;;;;7.90;66.01;94752.06;5070158;28;20654;-66
2021/04/18 03:50:06;;;;;;;27.52;18.17;;;;;;;7.86;66.53;94745.78;5071127;28;20365;-68
2021/04/18 03:52:55;;;;;;;26.10;17.95;;;;;;;7.94;66.04;94747.16;5070443;28;20219;-68
2021/04/18 03:55:24;;;;;;;25.10;16.40;;;;;;;7.95;65.89;94756.56;5070104;28;20215;-69
2021/04/18 03:57:53;;;;;;;24.65;16.50;;;;;;;8.09;65.96;94760.41;5053214;28;20692;-69
2021/04/18 04:00:22;;;;;;;22.00;16.20;;;;;;;7.98;65.59;94749.06;5076197;28;20215;-66
2021/04/18 04:02:58;;;;;;;31.33;16.88;;;;;;;7.99;65.74;94749.84;5089830;28;20214;-66
2021/04/18 04:05:27;;;;;;;22.40;16.50;;;;;;;8.07;65.86;94746.81;5090044;28;20203;-69
2021/04/18 04:07:55;;;;;;;25.05;15.30;;;;;;;7.88;65.94;94763.78;5088823;28;20452;-70
2021/04/18 04:10:24;;;;;;;22.33;15.90;;;;;;;8.13;65.69;94761.50;5089733;28;20246;-66
2021/04/18 04:12:51;;;;;;;26.42;16.13;;;;;;;8.03;66.13;94767.38;5090417;28;20645;-63
2021/04/18 04:15:18;;;;;;;23.38;14.98;;;;;;;7.97;65.97;94772.78;5089726;28;20199;-66
2021/04/18 04:17:48;;;;;;;22.73;16.15;;;;;;;7.87;67.28;94772.63;5088932;28;20219;-66
2021/04/18 04:20:26;;;;;;;21.65;14.90;;;;;;;8.10;66.77;94780.25;5089699;28;20778;-64
2021/04/18 04:23:27;;;;;;;22.20;15.77;;;;;;;8.07;66.83;94783.31;5108408;28;20212;-66
2021/04/18 04:25:54;;;;;;;23.27;14.60;;;;;;;7.96;66.60;94787.63;5094281;28;20211;-65
2021/04/18 04:28:20;;;;;;;21.43;15.20;;;;;;;7.98;66.55;94779.56;5090213;28;20183;-69
2021/04/18 04:30:47;;;;;;;23.33;15.18;;;;;;;8.01;66.65;94785.09;5089535;28;20932;-68
2021/04/18 04:33:13;;;;;;;22.73;15.18;;;;;;;7.68;67.40;94792.22;5090345;28;20701;-65
2021/04/18 04:35:41;;;;;;;26.27;15.50;;;;;;;7.92;67.11;94796.97;5090360;28;20688;-65
2021/04/18 04:38:07;;;;;;;22.70;15.68;;;;;;;7.85;67.83;94795.56;5090113;28;20301;-69
2021/04/18 04:40:33;;;;;;;22.70;15.40;;;;;;;7.90;67.50;94798.25;5090697;28;20207;-65
2021/04/18 04:43:00;;;;;;;22.92;15.77;;;;;;;7.83;67.52;94787.19;5090167;28;20206;-65
2021/04/18 04:45:27;;;;;;;21.35;15.85;;;;;;;7.76;68.29;94791.78;5090563;28;20207;-66
2021/04/18 04:47:53;;;;;;;22.85;14.82;;;;;;;7.92;68.24;94796.16;5089879;28;20203;-65
2021/04/18 04:50:20;;;;;;;20.60;13.32;;;;;;;7.68;68.05;94810.47;5090362;28;20266;-66
2021/04/18 04:52:47;;;;;;;20.27;14.15;;;;;;;7.59;67.90;94806.69;5089907;28;20230;-66
2021/04/18 04:55:14;;;;;;;22.75;14.20;;;;;;;7.77;67.99;94801.97;5090494;28;20230;-66
2021/04/18 04:57:41;;;;;;;18.65;13.88;;;;;;;7.82;67.35;94793.44;5089667;28;20191;-64
2021/04/18 05:00:09;;;;;;;20.83;15.25;;;;;;;7.77;68.07;94807.19;5090956;28;20199;-67
2021/04/18 05:02:35;;;;;;;18.67;12.77;;;;;;;7.61;68.06;94809.84;5090196;28;20661;-68
2021/04/18 05:05:02;;;;;;;22.23;14.13;;;;;;;7.54;68.38;94803.97;5088920;28;20604;-66
2021/04/18 05:07:29;;;;;;;18.70;14.13;;;;;;;7.39;68.76;94795.94;5089650;28;20195;-67
2021/04/18 05:09:55;;;;;;;20.60;13.57;;;;;;;7.58;68.68;94795.47;5090404;28;20713;-68
2021/04/18 05:12:22;;;;;;;25.55;14.43;;;;;;;7.65;68.34;94801.28;5089677;28;20522;-67
2021/04/18 05:14:49;;;;;;;21.35;13.93;;;;;;;7.84;67.89;94799.22;5090557;28;20664;-67
2021/04/18 05:17:15;;;;;;;23.02;14.80;;;;;;;7.74;68.07;94786.81;5089670;28;20306;-65
2021/04/18 05:19:43;;;;;;;23.50;14.43;;;;;;;7.90;67.60;94777.38;5093254;28;20632;-67
2021/04/18 05:22:09;;;;;;;16.60;13.30;;;;;;;7.70;68.36;94784.94;5094093;28;20187;-67
2021/04/18 05:24:36;;;;;;;19.90;14.55;;;;;;;7.78;68.28;94774.09;5094526;28;20194;-66
2021/04/18 05:27:02;;;;;;;20.45;14.15;;;;;;;7.92;67.50;94780.53;5092525;28;20195;-69
2021/04/18 05:29:29;;;;;;;20.40;14.88;;;;;;;7.94;67.22;94768.03;5093914;28;20210;-66
2021/04/18 05:31:55;;;;;;;21.55;14.88;;;;;;;7.79;67.67;94773.06;5093847;28;20223;-67
2021/04/18 05:34:23;;;;;;;20.50;14.43;;;;;;;7.80;68.21;94772.81;5093935;28;20626;-65
2021/04/18 05:36:49;;;;;;;19.63;13.77;;;;;;;7.77;68.34;94768.06;5093304;28;20516;-65
2021/04/18 05:39:16;;;;;;;24.60;13.90;;;;;;;7.64;68.37;94762.41;5093979;28;20199;-66
2021/04/18 05:41:42;;;;;;;19.48;13.80;;;;;;;7.84;68.12;94757.47;5093771;28;20195;-68
2021/04/18 05:44:13;;;;;;;22.93;14.07;;;;;;;7.85;67.48;94759.03;5094403;28;20672;-66
2021/04/18 05:46:44;;;;;;;20.40;14.02;;;;;;;7.89;67.80;94765.34;5093356;28;20449;-67
2021/04/18 05:49:10;;;;;;;20.77;13.27;;;;;;;7.83;67.95;94764.50;5094272;28;20199;-65
2021/04/18 05:51:37;;;;;;;22.95;14.40;;;;;;;7.84;67.84;94754.88;5093639;28;20191;-64
2021/04/18 05:54:05;;;;;;;22.42;13.68;;;;;;;7.95;67.43;94765.19;5093734;28;20195;-64
2021/04/18 05:56:32;;;;;;;31.77;14.37;;;;;;;7.88;67.73;94769.00;5093244;28;20206;-70
2021/04/18 05:58:58;;;;;;;22.27;13.43;;;;;;;7.67;68.03;94774.97;5093864;28;20433;-65
2021/04/18 06:01:27;;;;;;;19.38;13.13;;;;;;;7.90;68.06;94767.72;5093357;28;20764;-66
2021/04/18 06:03:56;;;;;;;19.23;13.80;;;;;;;7.77;67.38;94775.88;5093277;28;20677;-66
2021/04/18 06:06:24;;;;;;;20.13;14.70;;;;;;;7.92;68.20;94754.44;5093577;28;20437;-68
2021/04/18 06:08:50;;;;;;;20.55;13.85;;;;;;;7.92;67.66;94777.91;5092859;28;20184;-66
2021/04/18 06:11:17;;;;;;;18.90;13.52;;;;;;;7.99;67.50;94775.94;5093834;28;20211;-68
2021/04/18 06:13:43;;;;;;;21.53;13.37;;;;;;;7.96;67.11;94776.41;5095191;28;20218;-68
2021/04/18 06:16:10;;;;;;;19.88;13.32;;;;;;;7.92;67.85;94781.31;5095771;28;20448;-64
2021/04/18 06:18:37;;;;;;;19.77;13.52;;;;;;;7.92;67.68;94780.53;5093950;28;20230;-69
2021/04/18 06:21:05;;;;;;;20.38;13.40;;;;;;;8.06;67.43;94772.09;5093423;28;20242;-66
2021/04/18 06:23:32;;;;;;;17.77;13.30;;;;;;;7.98;66.88;94769.13;5093463;28;20199;-68
2021/04/18 06:26:01;;;;;;;16.77;12.43;;;;;;;7.87;67.55;94773.44;5093118;28;20634;-68
2021/04/18 06:28:27;;;;;;;14.98;11.63;;;;;;;8.13;67.09;94771.94;5092440;28;20643;-65
2021/04/18 06:30:54;;;;;;;19.00;12.57;;;;;;;8.17;66.65;94775.63;5092439;28;20195;-68
2021/04/18 06:33:20;;;;;;;16.83;12.52;;;;;;;8.44;67.31;94765.25;5092647;28;20225;-68
2021/04/18 06:35:47;;;;;;;16.53;13.10;;;;;;;8.70;65.96;94775.75;5092739;28;20199;-65
2021/04/18 06:38:14;;;;;;;15.80;11.97;;;;;;;8.72;65.53;94776.25;5092155;28;20452;-67
2021/04/18 06:40:41;;;;;;;16.00;12.02;;;;;;;9.01;65.14;94779.44;5091784;28;20456;-65
2021/04/18 06:43:10;;;;;;;16.75;12.65;;;;;;;8.96;65.29;94777.53;5082567;28;20196;-67
2021/04/18 06:45:37;;;;;;;15.47;12.53;;;;;;;8.80;64.38;94783.66;5081725;28;20625;-65
2021/04/18 06:48:05;;;;;;;15.00;11.87;;;;;;;8.83;64.60;94788.38;5079562;28;20468;-67
2021/04/18 06:50:32;;;;;;;22.27;11.87;;;;;;;9.01;64.49;94782.81;5092331;28;20442;-67
2021/04/18 06:52:58;;;;;;;14.87;12.03;;;;;;;9.09;64.45;94787.59;5091408;28;20499;-70
2021/04/18 06:55:28;;;;;;;14.50;11.50;;;;;;;9.29;64.00;94789.59;5069027;28;20449;-66
2021/04/18 06:57:54;;;;;;;14.37;11.57;;;;;;;9.34;64.30;94784.41;5062465;28;20462;-65
2021/04/18 07:00:21;;;;;;;13.30;10.83;;;;;;;9.39;63.94;94786.28;5054631;28;20797;-66
2021/04/18 07:02:48;;;;;;;15.83;11.80;;;;;;;9.54;63.85;94783.78;5058613;28;20526;-68
2021/04/18 07:05:16;;;;;;;18.37;12.37;;;;;;;9.65;63.72;94795.88;5063690;28;20974;-65
2021/04/18 07:07:45;;;;;;;18.90;13.40;;;;;;;9.43;63.28;94797.81;5074515;28;20453;-67
2021/04/18 07:10:26;;;;;;;16.17;12.10;;;;;;;9.42;63.00;94796.22;5091881;28;20506;-65
2021/04/18 07:12:55;;;;;;;23.67;14.57;;;;;;;9.58;62.83;94790.09;5091698;28;20481;-67
2021/04/18 07:15:39;;;;;;;15.23;11.67;;;;;;;9.47;62.95;94794.44;5054030;28;20458;-65
2021/04/18 07:18:06;;;;;;;30.03;22.40;;;;;;;9.53;62.82;94787.41;5051772;28;20435;-69
2021/04/18 07:20:33;;;;;;;42.60;33.03;;;;;;;9.52;62.49;94776.19;5051809;28;20443;-67
2021/04/18 07:23:33;;;;;;;32.20;25.93;;;;;;;9.65;63.78;94782.81;5052666;28;20435;-67
2021/04/18 07:26:30;;;;;;;20.97;16.47;;;;;;;9.72;62.92;94791.22;5074706;28;20445;-67
2021/04/18 07:29:15;;;;;;;22.00;15.37;;;;;;;9.40;62.19;94790.47;5069341;28;20975;-67
2021/04/18 07:31:42;;;;;;;25.23;16.93;;;;;;;9.47;62.95;94791.06;5075141;28;20457;-68
2021/04/18 07:34:12;;;;;;;24.57;16.10;;;;;;;9.47;63.52;94793.66;5071723;28;20488;-68
2021/04/18 07:36:46;;;;;;;23.23;17.43;;;;;;;9.45;63.03;94790.50;5091661;28;20823;-71
2021/04/18 07:39:15;;;;;;;37.67;28.43;;;;;;;9.59;62.83;94786.41;5091656;28;20442;-68
2021/04/18 07:41:47;;;;;;;22.10;16.80;;;;;;;9.70;63.43;94798.53;5090778;28;20451;-69
2021/04/18 07:44:15;;;;;;;20.23;15.00;;;;;;;9.60;62.61;94799.25;5073414;28;20454;-68
2021/04/18 07:46:51;;;;;;;22.83;16.27;;;;;;;9.79;62.38;94804.88;5073586;28;20438;-66
2021/04/18 07:49:19;;;;;;;21.70;15.47;;;;;;;9.80;61.97;94802.00;5092204;28;20488;-69
2021/04/18 07:51:48;;;;;;;25.50;17.77;;;;;;;9.55;62.47;94806.25;5094869;28;20433;-68
2021/04/18 07:54:18;;;;;;;51.20;36.30;;;;;;;9.72;62.02;94806.91;5094952;28;20512;-69
2021/04/18 07:57:03;;;;;;;31.47;22.50;;;;;;;9.84;61.81;94803.06;5093474;28;20518;-67
2021/04/18 07:59:30;;;;;;;28.13;18.53;;;;;;;9.82;62.07;94807.75;5065515;28;20461;-69
2021/04/18 08:01:56;;;;;;;24.87;17.33;;;;;;;9.86;61.74;94802.81;5052027;28;20438;-67
2021/04/18 08:04:23;;;;;;;25.37;17.90;;;;;;;9.99;61.07;94808.41;5050045;28;20971;-70
2021/04/18 08:06:50;;;;;;;26.27;17.63;;;;;;;9.96;61.79;94810.75;5051385;28;20513;-73
2021/04/18 08:09:17;;;;;;;27.53;18.30;;;;;;;9.94;62.55;94811.00;5050472;28;21091;-69
2021/04/18 08:12:08;;;;;;;24.77;18.67;;;;;;;9.76;61.47;94813.22;5052157;28;20964;-66
2021/04/18 08:14:36;;;;;;;26.93;18.77;;;;;;;9.84;61.45;94804.88;5056535;28;20465;-70
2021/04/18 08:17:07;;;;;;;32.53;21.20;;;;;;;10.01;61.79;94816.00;5054239;28;20454;-71
2021/04/18 08:19:35;;;;;;;30.37;21.20;;;;;;;9.99;61.49;94813.63;5054798;28;20962;-70
2021/04/18 08:22:03;;;;;;;27.93;19.20;;;;;;;10.12;60.91;94809.81;5058242;28;20443;-66
2021/04/18 08:24:32;;;;;;;26.67;19.00;;;;;;;10.22;60.61;94812.47;5057609;28;20435;-69
2021/04/18 08:27:08;;;;;;;25.60;18.10;;;;;;;10.31;60.89;94813.56;5054596;28;20445;-65
2021/04/18 08:29:35;;;;;;;24.47;17.80;;;;;;;10.20;60.70;94809.31;5057340;28;20461;-68
2021/04/18 08:32:08;;;;;;;27.07;18.67;;;;;;;10.20;60.51;94815.34;5073673;28;20536;-69
2021/04/18 08:34:38;;;;;;;25.10;18.77;;;;;;;9.97;60.60;94791.38;5085352;28;20445;-67
2021/04/18 08:37:13;;;;;;;25.47;18.17;;;;;;;9.94;60.82;94820.66;5075786;28;20452;-65
2021/04/18 08:39:40;;;;;;;27.27;19.23;;;;;;;10.05;60.13;94811.84;5080826;28;20441;-64
2021/04/18 08:42:21;;;;;;;29.90;20.77;;;;;;;10.08;61.42;94816.56;5090174;28;20455;-64
2021/04/18 08:44:50;;;;;;;31.63;21.90;;;;;;;10.32;59.92;94809.91;5078642;28;20512;-68
2021/04/18 08:47:21;;;;;;;28.10;18.63;;;;;;;10.44;60.29;94815.72;5090637;28;20451;-66
2021/04/18 08:49:51;;;;;;;28.63;20.20;;;;;;;10.45;60.25;94812.06;5090468;28;20451;-67
2021/04/18 08:52:26;;;;;;;29.93;19.77;;;;;;;10.27;58.98;94814.34;5090197;28;20475;-67
2021/04/18 08:54:56;;;;;;;27.63;19.97;;;;;;;10.41;59.03;94811.00;5090333;28;20453;-67
2021/04/18 08:57:29;;;;;;;30.43;20.07;;;;;;;10.38;59.22;94831.66;5089971;28;20548;-66
2021/04/18 09:00:00;;;;;;;30.30;20.40;;;;;;;10.30;59.66;94825.09;5090792;28;20437;-66
2021/04/18 09:02:29;;;;;;;30.50;21.50;;;;;;;10.44;59.29;94826.19;5089840;28;20521;-68
2021/04/18 09:04:58;;;;;;;32.83;20.47;;;;;;;10.52;58.63;94828.31;5090140;28;20445;-67
2021/04/18 09:07:30;;;;;;;30.60;20.27;;;;;;;10.33;58.72;94824.56;5090209;28;20445;-66
2021/04/18 09:10:05;;;;;;;28.20;20.23;;;;;;;10.13;58.49;94827.06;5089918;28;20562;-65
2021/04/18 09:12:33;;;;;;;30.93;20.90;;;;;;;10.28;58.96;94827.16;5090263;28;20484;-67
2021/04/18 09:14:59;;;;;;;35.03;22.10;;;;;;;10.45;59.30;94827.78;5090311;28;20441;-65
2021/04/18 09:17:31;;;;;;;32.73;22.17;;;;;;;10.38;60.12;94832.47;5090087;28;20473;-65
2021/04/18 09:20:00;;;;;;;30.23;20.17;;;;;;;10.31;59.46;94831.88;5090108;28;21069;-68
2021/04/18 09:22:31;;;;;;;31.80;21.60;;;;;;;10.44;59.93;94820.94;5090546;28;20440;-68
2021/04/18 09:25:06;;;;;;;31.30;21.67;;;;;;;10.31;60.95;94831.88;5070981;28;21062;-68
2021/04/18 09:27:37;;;;;;;27.40;20.33;;;;;;;9.77;60.26;94846.19;5069118;28;21268;-67
2021/04/18 09:30:14;;;;;;;30.23;20.87;;;;;;;9.95;60.67;94843.16;5075841;28;20445;-67
2021/04/18 09:32:47;;;;;;;30.60;20.70;;;;;;;10.14;60.56;94831.28;5068732;28;20494;-68
2021/04/18 09:35:19;;;;;;;33.03;22.43;;;;;;;10.11;60.76;94805.59;5068414;28;20461;-69
2021/04/18 09:38:01;;;;;;;32.97;22.80;;;;;;;10.44;59.52;94830.66;5064750;28;20472;-70
2021/04/18 09:40:31;;;;;;;30.53;21.50;;;;;;;10.51;58.88;94811.00;5077676;28;20515;-67
2021/04/18 09:42:58;;;;;;;31.13;20.77;;;;;;;10.85;58.60;94827.91;5076211;28;20446;-68
2021/04/18 09:45:27;;;;;;;33.13;21.20;;;;;;;11.11;58.16;94816.41;5069123;28;20451;-68
2021/04/18 09:48:09;;;;;;;32.00;22.87;;;;;;;10.90;59.32;94825.31;5049823;28;20821;-67
2021/04/18 09:50:36;;;;;;;29.70;20.00;;;;;;;10.81;58.98;94826.84;5049981;28;20450;-68
2021/04/18 09:53:21;;;;;;;31.43;20.50;;;;;;;10.58;59.38;94826.50;5049334;28;20485;-70
2021/04/18 09:56:05;;;;;;;31.03;21.77;;;;;;;10.97;58.84;94817.97;5049216;28;20447;-67
2021/04/18 09:58:34;;;;;;;28.63;20.00;;;;;;;11.12;58.87;94814.59;5057939;28;21183;-70
2021/04/18 10:01:02;;;;;;;27.27;19.43;;;;;;;10.95;58.22;94809.59;5077676;28;20494;-67
2021/04/18 10:03:38;;;;;;;25.00;18.67;;;;;;;10.85;57.50;94817.44;5079784;28;20454;-67
2021/04/18 10:06:07;;;;;;;27.17;18.33;;;;;;;10.87;56.92;94820.59;5077296;28;20453;-68
2021/04/18 10:08:35;;;;;;;26.53;19.27;;;;;;;10.72;57.80;94817.91;5073313;28;20553;-69
2021/04/18 10:11:02;;;;;;;28.60;19.70;;;;;;;11.06;56.70;94829.53;5072254;28;20481;-69
2021/04/18 10:13:38;;;;;;;30.80;19.97;;;;;;;10.97;57.78;94825.84;5073521;28;20470;-67
2021/04/18 10:16:24;;;;;;;31.27;20.17;;;;;;;10.71;58.21;94824.19;5091783;28;20449;-69
2021/04/18 10:19:08;;;;;;;32.83;22.60;;;;;;;11.06;58.58;94819.03;5078330;28;20468;-67
2021/04/18 10:21:34;;;;;;;38.63;24.97;;;;;;;11.18;59.98;94819.56;5088093;28;20436;-68
2021/04/18 10:24:02;;;;;;;38.30;25.17;;;;;;;11.27;59.59;94813.81;5083080;28;20535;-69
2021/04/18 10:26:30;;;;;;;38.47;25.67;;;;;;;11.48;59.45;94820.69;5092628;28;20531;-70
2021/04/18 10:28:56;;;;;;;33.87;23.07;;;;;;;11.22;58.20;94818.00;5083424;28;20492;-69
2021/04/18 10:31:25;;;;;;;68.70;50.17;;;;;;;11.54;60.05;94825.66;5073041;28;20465;-72
2021/04/18 10:33:52;;;;;;;72.87;48.83;;;;;;;11.83;59.43;94818.03;5072873;28;20477;-73
2021/04/18 10:36:18;;;;;;;36.30;24.40;;;;;;;12.05;55.76;94806.22;5085100;28;20476;-72
2021/04/18 10:38:45;;;;;;;34.50;23.37;;;;;;;11.82;55.93;94811.25;5092931;28;20432;-70
2021/04/18 10:41:11;;;;;;;30.10;21.70;;;;;;;12.00;55.58;94819.34;5091239;28;20433;-69
2021/04/18 10:43:38;;;;;;;29.37;20.90;;;;;;;11.83;56.62;94818.03;5085684;28;20509;-70
2021/04/18 10:46:05;;;;;;;33.43;22.07;;;;;;;12.10;56.76;94829.03;5052435;28;21015;-71
2021/04/18 10:48:32;;;;;;;32.10;21.87;;;;;;;12.33;56.40;94832.94;5052348;28;20454;-72
2021/04/18 10:51:00;;;;;;;27.37;19.77;;;;;;;11.80;56.11;94818.59;5059787;28;20438;-72
2021/04/18 10:53:26;;;;;;;31.47;20.83;;;;;;;12.25;56.68;94821.13;5072772;28;20477;-70
2021/04/18 10:55:57;;;;;;;36.17;23.57;;;;;;;12.81;55.57;94825.09;5064109;28;20459;-71
2021/04/18 10:58:23;;;;;;;34.73;23.77;;;;;;;12.80;58.71;94820.13;5052297;28;20457;-73
2021/04/18 11:00:50;;;;;;;37.90;27.10;;;;;;;13.05;57.76;94820.81;5052210;28;20526;-68
2021/04/18 11:03:17;;;;;;;40.33;26.30;;;;;;;13.12;58.21;94831.03;5052337;28;20447;-70
2021/04/18 11:05:43;;;;;;;37.97;26.87;;;;;;;13.02;55.47;94808.22;5052018;28;20431;-71
2021/04/18 11:08:11;;;;;;;42.73;27.20;;;;;;;13.52;53.09;94825.50;5079297;28;20982;-69
2021/04/18 11:10:37;;;;;;;45.80;28.80;;;;;;;13.06;53.52;94817.09;5076978;28;20798;-72
2021/04/18 11:13:04;;;;;;;53.47;33.53;;;;;;;12.98;54.46;94830.81;5071579;28;20537;-70
2021/04/18 11:15:30;;;;;;;48.37;31.40;;;;;;;12.48;54.31;94825.00;5090541;28;20461;-70
2021/04/18 11:17:56;;;;;;;49.40;30.57;;;;;;;12.34;54.83;94832.66;5074057;28;20834;-69
2021/04/18 11:20:26;;;;;;;65.07;37.93;;;;;;;12.64;54.68;94824.69;5071440;28;20438;-69
2021/04/18 11:22:52;;;;;;;42.73;29.53;;;;;;;12.96;53.94;94827.69;5071555;28;21019;-70
2021/04/18 11:25:19;;;;;;;43.33;28.27;;;;;;;13.32;53.28;94804.59;5051580;28;20442;-70
2021/04/18 11:27:47;;;;;;;40.80;26.97;;;;;;;12.71;53.98;94814.66;5080995;28;20534;-70
2021/04/18 11:30:16;;;;;;;42.17;28.00;;;;;;;12.91;53.70;94825.06;5080958;28;20480;-70
2021/04/18 11:32:43;;;;;;;38.33;27.00;;;;;;;12.84;52.65;94818.53;5071338;28;20503;-72
2021/04/18 11:35:11;;;;;;;42.43;28.43;;;;;;;12.98;53.00;94825.56;5077593;28;20445;-71